Time;durP1;ratioP1;P1;durP2;ratioP2;P2;SDS_P1;SDS_P2;PMS_P1;PMS_P2;Temp;Humidity;BMP_temperature;BMP_pressure;BME280_temperature;BME280_humidity;BME280_pressure;Samples;Min_cycle;Max_cycle;Signal;HPM_P1;HPM_P2
2021/10/04 00:00:12;;;;;;;18.30;11.68;;;;;;;16.43;nan;101221.94;4898800;29;20056;-48
2021/10/04 00:02:38;;;;;;;16.90;11.20;;;;;;;16.45;nan;101230.56;4890431;29;20024;-47
2021/10/04 00:05:04;;;;;;;15.93;11.02;;;;;;;16.40;nan;101237.91;4898816;29;20045;-48
2021/10/04 00:07:29;;;;;;;19.45;12.13;;;;;;;16.41;nan;101237.63;4898067;29;20038;-49
2021/10/04 00:09:55;;;;;;;15.25;11.18;;;;;;;16.38;nan;101234.66;4897012;29;20025;-50
2021/10/04 00:12:20;;;;;;;16.67;11.75;;;;;;;16.36;nan;101232.22;4899236;29;20538;-48
2021/10/04 00:14:46;;;;;;;19.67;12.18;;;;;;;16.32;nan;101239.25;4897609;29;20036;-48
2021/10/04 00:17:11;;;;;;;17.30;12.20;;;;;;;16.26;nan;101240.34;4899080;29;20038;-48
2021/10/04 00:19:37;;;;;;;17.65;12.07;;;;;;;16.15;nan;101244.16;4898235;29;20044;-50
2021/10/04 00:22:04;;;;;;;18.15;12.35;;;;;;;16.11;nan;101243.09;4901322;29;20502;-48
2021/10/04 00:24:29;;;;;;;19.20;12.15;;;;;;;15.99;nan;101233.38;4899658;29;20028;-48
2021/10/04 00:26:55;;;;;;;18.38;11.05;;;;;;;15.94;nan;101252.28;4899490;29;20035;-47
2021/10/04 00:29:20;;;;;;;18.13;11.63;;;;;;;15.88;nan;101247.16;4899475;29;20106;-48
2021/10/04 00:31:47;;;;;;;19.98;12.45;;;;;;;15.94;nan;101252.28;4896698;29;20028;-49
2021/10/04 00:34:13;;;;;;;24.30;12.35;;;;;;;15.88;nan;101257.97;4895470;29;20044;-50
2021/10/04 00:36:38;;;;;;;17.90;11.20;;;;;;;15.94;nan;101267.69;4897356;29;20035;-51
2021/10/04 00:39:04;;;;;;;18.80;12.20;;;;;;;15.95;nan;101264.72;4895665;29;20043;-48
2021/10/04 00:41:31;;;;;;;19.55;12.80;;;;;;;16.02;nan;101273.38;4897344;29;20039;-48
2021/10/04 00:43:57;;;;;;;18.05;12.48;;;;;;;16.10;nan;101269.31;4902001;29;20028;-48
2021/10/04 00:46:24;;;;;;;19.13;12.55;;;;;;;16.07;nan;101275.25;4901122;29;20083;-51
2021/10/04 00:48:50;;;;;;;20.20;13.07;;;;;;;16.09;nan;101274.97;4895623;29;20381;-48
2021/10/04 00:51:19;;;;;;;18.88;12.57;;;;;;;16.09;nan;101281.19;4898722;29;20394;-48
2021/10/04 00:53:47;;;;;;;19.35;12.35;;;;;;;16.11;nan;101286.34;4895485;29;20100;-48
2021/10/04 00:56:13;;;;;;;19.58;13.60;;;;;;;16.12;nan;101279.84;4900329;29;20490;-50
2021/10/04 00:58:39;;;;;;;21.55;12.43;;;;;;;16.14;nan;101285.78;4894990;29;20518;-49
2021/10/04 01:01:04;;;;;;;22.48;13.07;;;;;;;16.13;nan;101287.69;4886287;29;20028;-48
2021/10/04 01:03:30;;;;;;;18.20;12.70;;;;;;;16.12;nan;101290.66;4895192;29;20039;-48
2021/10/04 01:05:55;;;;;;;19.40;12.20;;;;;;;16.04;nan;101294.72;4898039;29;20024;-48
2021/10/04 01:08:21;;;;;;;19.80;12.07;;;;;;;16.01;nan;101296.09;4899330;29;20035;-48
2021/10/04 01:10:47;;;;;;;20.95;13.27;;;;;;;16.00;nan;101307.97;4898802;29;20024;-48
2021/10/04 01:13:12;;;;;;;20.38;12.65;;;;;;;15.95;nan;101301.75;4899350;29;20039;-48
2021/10/04 01:15:38;;;;;;;19.70;13.02;;;;;;;15.98;nan;101312.84;4895555;29;20021;-48
2021/10/04 01:18:07;;;;;;;22.10;13.77;;;;;;;16.02;nan;101316.63;4898227;29;20036;-48
2021/10/04 01:20:32;;;;;;;18.85;12.52;;;;;;;16.07;nan;101309.59;4897557;29;20224;-48
2021/10/04 01:22:58;;;;;;;23.08;13.48;;;;;;;16.00;nan;101315.28;4898866;29;20028;-49
2021/10/04 01:25:24;;;;;;;23.42;12.60;;;;;;;16.02;nan;101308.50;4893738;29;20028;-48
2021/10/04 01:27:50;;;;;;;21.65;13.32;;;;;;;15.92;nan;101305.00;4900009;29;20070;-48
2021/10/04 01:30:18;;;;;;;21.30;12.68;;;;;;;15.89;nan;101306.34;4897272;29;20586;-48
2021/10/04 01:32:44;;;;;;;20.45;13.00;;;;;;;15.96;nan;101301.47;4902572;29;20084;-48
2021/10/04 01:35:10;;;;;;;19.90;13.15;;;;;;;15.92;nan;101303.09;4896733;29;20031;-48
2021/10/04 01:37:36;;;;;;;19.90;13.75;;;;;;;15.97;nan;101308.50;4899647;29;20028;-48
2021/10/04 01:40:04;;;;;;;17.38;12.45;;;;;;;15.85;nan;101318.78;4896770;29;20103;-48
2021/10/04 01:42:30;;;;;;;18.50;12.75;;;;;;;15.86;nan;101327.69;4898478;29;20654;-48
2021/10/04 01:44:55;;;;;;;21.40;13.25;;;;;;;15.89;nan;101327.97;4899331;29;20033;-48
2021/10/04 01:47:21;;;;;;;18.38;13.02;;;;;;;15.86;nan;101323.09;4896703;29;20025;-49
2021/10/04 01:49:46;;;;;;;20.63;12.68;;;;;;;15.81;nan;101328.50;4897631;29;20390;-48
2021/10/04 01:52:13;;;;;;;21.48;12.70;;;;;;;15.71;nan;101323.06;4903919;29;20509;-48
2021/10/04 01:54:40;;;;;;;21.60;12.25;;;;;;;15.81;nan;101322.28;4901861;29;20467;-48
2021/10/04 01:57:06;;;;;;;21.17;14.15;;;;;;;15.80;nan;101326.03;4898949;29;20076;-48
2021/10/04 01:59:33;;;;;;;21.42;12.68;;;;;;;15.80;nan;101340.41;4902477;29;20754;-48
2021/10/04 02:01:58;;;;;;;20.65;13.23;;;;;;;15.76;nan;101342.00;4899747;29;20456;-48
2021/10/04 02:04:24;;;;;;;17.25;12.50;;;;;;;15.69;nan;101352.25;4901424;29;20028;-48
2021/10/04 02:06:51;;;;;;;21.65;13.13;;;;;;;15.75;nan;101350.38;4901643;29;20035;-48
2021/10/04 02:09:18;;;;;;;19.83;13.25;;;;;;;15.75;nan;101353.88;4900429;29;20029;-48
2021/10/04 02:11:44;;;;;;;24.83;13.90;;;;;;;15.76;nan;101346.59;4917638;29;20036;-48
2021/10/04 02:14:09;;;;;;;20.27;13.63;;;;;;;15.80;nan;101347.66;4897406;29;20490;-48
2021/10/04 02:16:35;;;;;;;21.75;14.20;;;;;;;15.76;nan;101352.78;4902344;29;20115;-48
2021/10/04 02:19:00;;;;;;;19.17;13.50;;;;;;;15.76;nan;101351.97;4900115;29;20084;-49
2021/10/04 02:21:26;;;;;;;21.80;14.20;;;;;;;15.73;nan;101358.75;4902550;29;20519;-48
2021/10/04 02:23:51;;;;;;;22.83;13.77;;;;;;;15.66;nan;101358.19;4900529;29;20040;-48
2021/10/04 02:26:17;;;;;;;19.55;13.73;;;;;;;15.59;nan;101371.94;4900275;29;20273;-48
2021/10/04 02:28:42;;;;;;;23.60;14.30;;;;;;;15.61;nan;101377.06;4897388;29;20047;-48
2021/10/04 02:31:08;;;;;;;18.25;13.30;;;;;;;15.60;nan;101380.84;4899431;29;20033;-51
2021/10/04 02:33:33;;;;;;;22.33;13.95;;;;;;;15.50;nan;101376.22;4891139;29;20135;-49
2021/10/04 02:35:59;;;;;;;20.95;13.25;;;;;;;15.58;nan;101388.38;4897574;29;20035;-49
2021/10/04 02:38:24;;;;;;;25.17;14.00;;;;;;;15.55;nan;101388.91;4900667;29;20032;-48
2021/10/04 02:40:50;;;;;;;23.80;14.38;;;;;;;15.56;nan;101391.34;4900769;29;20356;-48
2021/10/04 02:43:18;;;;;;;20.63;13.60;;;;;;;15.54;nan;101387.28;4901692;29;20028;-49
2021/10/04 02:45:48;;;;;;;20.58;14.05;;;;;;;15.52;nan;101392.97;4897891;29;20040;-48
2021/10/04 02:48:15;;;;;;;21.73;14.00;;;;;;;15.54;nan;101398.09;4901593;29;20025;-48
2021/10/04 02:50:40;;;;;;;24.02;14.35;;;;;;;15.50;nan;101394.31;4898103;29;20028;-48
2021/10/04 02:53:06;;;;;;;21.00;13.80;;;;;;;15.58;nan;101410.00;4902349;29;20429;-48
2021/10/04 02:55:32;;;;;;;20.85;13.52;;;;;;;15.51;nan;101406.72;4898195;29;20392;-48
2021/10/04 02:57:57;;;;;;;21.00;14.70;;;;;;;15.53;nan;101418.09;4899673;29;20156;-49
2021/10/04 03:00:23;;;;;;;26.65;16.25;;;;;;;15.57;nan;101419.16;4898090;29;20036;-49
2021/10/04 03:02:48;;;;;;;22.45;14.23;;;;;;;15.52;nan;101416.47;4901952;29;20028;-49
2021/10/04 03:05:14;;;;;;;26.30;15.95;;;;;;;15.48;nan;101431.56;4898564;29;20023;-48
2021/10/04 03:07:39;;;;;;;23.95;14.27;;;;;;;15.45;nan;101430.22;4900455;29;20032;-48
2021/10/04 03:10:06;;;;;;;23.95;14.75;;;;;;;15.41;nan;101429.91;4899133;29;20031;-48
2021/10/04 03:12:32;;;;;;;22.60;14.77;;;;;;;15.35;nan;101443.66;4900250;29;20069;-48
2021/10/04 03:14:59;;;;;;;21.17;14.07;;;;;;;15.33;nan;101445.81;4899469;29;20097;-50
2021/10/04 03:17:25;;;;;;;23.38;15.27;;;;;;;15.29;nan;101445.53;4900102;29;20102;-49
2021/10/04 03:19:51;;;;;;;22.98;14.73;;;;;;;15.29;nan;101445.53;4902030;29;20083;-48
2021/10/04 03:22:16;;;;;;;23.48;14.43;;;;;;;15.31;nan;101453.38;4899274;29;20036;-49
2021/10/04 03:24:42;;;;;;;22.83;14.90;;;;;;;15.31;nan;101454.19;4897744;29;20045;-48
2021/10/04 03:27:08;;;;;;;23.55;14.63;;;;;;;15.32;nan;101447.69;4896260;29;20036;-49
2021/10/04 03:29:34;;;;;;;22.77;14.38;;;;;;;15.32;nan;101445.00;4898325;29;20278;-48
2021/10/04 03:31:59;;;;;;;25.35;15.02;;;;;;;15.29;nan;101450.94;4900212;29;20039;-47
2021/10/04 03:34:25;;;;;;;25.88;14.93;;;;;;;15.12;nan;101450.28;4900554;29;20090;-49
2021/10/04 03:36:50;;;;;;;25.10;15.07;;;;;;;15.06;nan;101456.72;4900540;29;20128;-49
2021/10/04 03:39:16;;;;;;;27.02;15.80;;;;;;;15.11;nan;101448.66;4896178;29;20024;-49
2021/10/04 03:41:42;;;;;;;24.13;15.38;;;;;;;14.94;nan;101450.72;4898508;29;20107;-51
2021/10/04 03:44:08;;;;;;;23.35;14.27;;;;;;;14.87;nan;101453.63;4896086;29;20603;-49
2021/10/04 03:46:34;;;;;;;27.35;16.33;;;;;;;14.93;nan;101458.00;4896858;29;20059;-49
2021/10/04 03:49:00;;;;;;;25.10;15.20;;;;;;;14.99;nan;101467.75;4886479;29;20099;-48
2021/10/04 03:51:27;;;;;;;23.83;15.00;;;;;;;15.11;nan;101481.06;4902765;29;20043;-49
2021/10/04 03:53:52;;;;;;;26.20;14.63;;;;;;;15.15;nan;101478.66;4900181;29;20030;-48
2021/10/04 03:56:18;;;;;;;24.27;15.77;;;;;;;15.18;nan;101481.63;4899355;29;20043;-48
2021/10/04 03:58:44;;;;;;;25.50;15.30;;;;;;;15.14;nan;101494.03;4909565;29;20522;-48
2021/10/04 04:01:10;;;;;;;22.42;14.23;;;;;;;15.14;nan;101494.03;4899870;29;20033;-50
2021/10/04 04:03:37;;;;;;;23.23;15.57;;;;;;;15.11;nan;101505.34;4900982;29;20083;-48
2021/10/04 04:06:02;;;;;;;22.83;15.30;;;;;;;15.10;nan;101519.91;4903938;29;20034;-48
2021/10/04 04:08:29;;;;;;;26.73;16.90;;;;;;;15.11;nan;101525.06;4898463;29;20036;-48
2021/10/04 04:10:55;;;;;;;25.40;15.35;;;;;;;15.08;nan;101527.44;4900865;29;20068;-49
2021/10/04 04:13:21;;;;;;;23.67;16.10;;;;;;;15.09;nan;101516.41;4899242;29;20032;-51
2021/10/04 04:15:47;;;;;;;26.45;16.00;;;;;;;15.06;nan;101521.47;4899309;29;20480;-48
2021/10/04 04:18:12;;;;;;;24.90;15.77;;;;;;;15.07;nan;101525.81;4886042;29;20038;-49
2021/10/04 04:20:38;;;;;;;24.30;16.30;;;;;;;15.07;nan;101528.50;4899647;29;20076;-49
2021/10/04 04:23:04;;;;;;;25.88;15.90;;;;;;;15.07;nan;101536.59;4899380;29;20107;-49
2021/10/04 04:25:29;;;;;;;29.15;16.80;;;;;;;15.08;nan;101538.22;4901094;29;20032;-48
2021/10/04 04:27:58;;;;;;;30.27;16.95;;;;;;;15.07;nan;101534.72;4897588;29;20042;-49
2021/10/04 04:30:24;;;;;;;31.73;16.75;;;;;;;15.07;nan;101539.31;4895263;29;20431;-49
2021/10/04 04:32:50;;;;;;;27.80;16.85;;;;;;;15.01;nan;101535.75;4913661;29;20119;-48
2021/10/04 04:35:16;;;;;;;31.05;17.02;;;;;;;14.94;nan;101537.06;4900653;29;20035;-49
2021/10/04 04:37:42;;;;;;;25.15;16.13;;;;;;;14.85;nan;101527.81;4896273;29;20127;-49
2021/10/04 04:40:11;;;;;;;21.35;14.85;;;;;;;14.88;nan;101532.69;4897511;29;20032;-51
2021/10/04 04:42:37;;;;;;;20.25;12.63;;;;;;;14.92;nan;101539.22;4900960;29;20267;-48
2021/10/04 04:45:04;;;;;;;19.38;12.15;;;;;;;14.92;nan;101537.31;4898152;29;20502;-48
2021/10/04 04:47:30;;;;;;;17.58;10.77;;;;;;;14.85;nan;101541.28;4896175;29;20032;-49
2021/10/04 04:49:55;;;;;;;16.20;11.05;;;;;;;14.90;nan;101539.47;4894873;29;20043;-48
2021/10/04 04:52:20;;;;;;;14.40;8.73;;;;;;;14.85;nan;101535.91;4897298;29;20040;-49
2021/10/04 04:54:46;;;;;;;15.35;9.10;;;;;;;14.89;nan;101531.59;4900468;29;20032;-48
2021/10/04 04:57:12;;;;;;;12.32;7.57;;;;;;;14.89;nan;101539.69;4899748;29;20500;-48
2021/10/04 04:59:37;;;;;;;10.18;6.45;;;;;;;14.84;nan;101551.28;4899535;29;20024;-49
2021/10/04 05:02:03;;;;;;;10.02;6.55;;;;;;;14.87;nan;101549.94;4899736;29;20032;-48
2021/10/04 05:04:30;;;;;;;10.15;6.30;;;;;;;14.94;nan;101562.16;4900449;29;20037;-48
2021/10/04 05:06:56;;;;;;;10.27;5.68;;;;;;;14.89;nan;101564.78;4898546;29;20032;-48
2021/10/04 05:09:21;;;;;;;9.05;5.82;;;;;;;14.91;nan;101575.34;4897658;29;20090;-48
2021/10/04 05:11:47;;;;;;;10.00;6.05;;;;;;;14.90;nan;101577.25;4899054;29;20040;-48
2021/10/04 05:14:13;;;;;;;7.90;5.20;;;;;;;14.81;nan;101584.97;4896248;29;20032;-48
2021/10/04 05:16:38;;;;;;;7.72;5.47;;;;;;;14.75;nan;101586.00;4898447;29;20029;-48
2021/10/04 05:19:04;;;;;;;8.48;5.18;;;;;;;14.81;nan;101584.97;4912473;29;20032;-48
2021/10/04 05:21:29;;;;;;;9.13;5.38;;;;;;;14.80;nan;101583.34;4895028;29;20040;-49
2021/10/04 05:23:55;;;;;;;8.60;5.30;;;;;;;14.90;nan;101581.78;4898253;29;20024;-48
2021/10/04 05:26:20;;;;;;;10.50;5.65;;;;;;;14.89;nan;101597.16;4889024;29;20073;-48
2021/10/04 05:28:46;;;;;;;7.60;5.03;;;;;;;14.91;nan;101605.03;4893622;29;20036;-48
2021/10/04 05:31:12;;;;;;;8.23;5.65;;;;;;;14.92;nan;101598.56;4893378;29;20035;-47
2021/10/04 05:33:37;;;;;;;8.93;5.60;;;;;;;15.00;nan;101603.50;4892511;29;20045;-49
2021/10/04 05:36:06;;;;;;;8.77;5.82;;;;;;;15.01;nan;101605.13;4892814;29;20035;-48
2021/10/04 05:38:32;;;;;;;10.43;5.45;;;;;;;14.92;nan;101610.19;4910586;29;20539;-50
2021/10/04 05:40:58;;;;;;;12.25;7.20;;;;;;;14.90;nan;101608.78;4894771;29;20039;-49
2021/10/04 05:43:24;;;;;;;12.35;8.15;;;;;;;14.85;nan;101600.66;4893057;29;20036;-48
2021/10/04 05:45:49;;;;;;;11.57;7.85;;;;;;;14.81;nan;101590.38;4896062;29;20036;-48
2021/10/04 05:48:15;;;;;;;14.95;8.57;;;;;;;14.74;nan;101589.78;4893794;29;20069;-48
2021/10/04 05:50:41;;;;;;;12.35;7.53;;;;;;;14.76;nan;101593.03;4892191;29;20895;-49
2021/10/04 05:53:06;;;;;;;9.98;6.50;;;;;;;14.82;nan;101601.97;4907674;29;20035;-52
2021/10/04 05:55:32;;;;;;;11.23;7.07;;;;;;;14.89;nan;101607.97;4897126;29;20043;-48
2021/10/04 05:57:58;;;;;;;8.45;5.72;;;;;;;14.84;nan;101620.59;4893487;29;20115;-48
2021/10/04 06:00:23;;;;;;;10.25;6.50;;;;;;;14.74;nan;101637.50;4892576;29;20364;-48
2021/10/04 06:02:49;;;;;;;10.27;5.90;;;;;;;14.65;nan;101639.03;4897026;29;20055;-48
2021/10/04 06:05:15;;;;;;;11.02;6.50;;;;;;;14.57;nan;101643.00;4895931;29;20400;-49
2021/10/04 06:07:41;;;;;;;9.75;6.05;;;;;;;14.64;nan;101638.22;4912814;29;20531;-48
2021/10/04 06:10:10;;;;;;;9.77;5.85;;;;;;;14.68;nan;101635.81;4893990;29;20028;-48
2021/10/04 06:12:36;;;;;;;8.98;6.30;;;;;;;14.72;nan;101639.63;4895929;29;20037;-48
2021/10/04 06:15:03;;;;;;;8.07;5.47;;;;;;;14.81;nan;101641.63;4895502;29;20028;-48
2021/10/04 06:17:28;;;;;;;6.90;4.97;;;;;;;14.84;nan;101647.59;4910775;29;20724;-50
2021/10/04 06:19:54;;;;;;;8.65;5.28;;;;;;;14.76;nan;101663.16;4895639;29;20050;-48
2021/10/04 06:22:20;;;;;;;7.10;4.32;;;;;;;14.74;nan;101657.22;4897150;29;20028;-48
2021/10/04 06:24:47;;;;;;;8.95;4.90;;;;;;;14.85;nan;101665.41;4907186;29;20060;-48
2021/10/04 06:27:12;;;;;;;8.73;5.50;;;;;;;14.91;nan;101675.19;4897891;29;20539;-48
2021/10/04 06:29:38;;;;;;;7.72;4.90;;;;;;;14.86;nan;101667.03;4895785;29;20130;-50
2021/10/04 06:32:05;;;;;;;8.98;5.22;;;;;;;14.89;nan;101658.41;4892508;29;20028;-48
2021/10/04 06:34:31;;;;;;;8.55;5.20;;;;;;;14.92;nan;101666.03;4892246;29;20032;-48
2021/10/04 06:36:57;;;;;;;7.57;4.88;;;;;;;15.00;nan;101657.47;4891918;29;20119;-48
2021/10/04 06:39:23;;;;;;;13.40;5.40;;;;;;;14.93;nan;101667.66;4893485;29;20036;-48
2021/10/04 06:41:48;;;;;;;7.70;5.15;;;;;;;14.95;nan;101673.59;4896557;29;20076;-49
2021/10/04 06:44:14;;;;;;;8.15;4.97;;;;;;;15.04;nan;101691.78;4895752;29;20265;-48
2021/10/04 06:46:39;;;;;;;6.00;4.55;;;;;;;14.91;nan;101704.88;4895752;29;20083;-48
2021/10/04 06:49:06;;;;;;;7.82;5.03;;;;;;;14.77;nan;101717.94;4896198;29;20059;-48
2021/10/04 06:51:32;;;;;;;7.82;4.22;;;;;;;14.65;nan;101723.44;4896002;29;20043;-48
2021/10/04 06:53:58;;;;;;;5.88;4.28;;;;;;;14.66;nan;101713.47;4895073;29;20037;-49
2021/10/04 06:56:23;;;;;;;5.75;4.20;;;;;;;14.75;nan;101710.09;4897682;29;20043;-48
2021/10/04 06:58:49;;;;;;;12.07;3.80;;;;;;;14.89;nan;101697.00;4895207;29;20040;-48
2021/10/04 07:01:15;;;;;;;5.22;3.55;;;;;;;14.80;nan;101702.06;4896149;29;20036;-48
2021/10/04 07:03:40;;;;;;;4.57;3.13;;;;;;;14.91;nan;101718.38;4895853;29;20391;-48
2021/10/04 07:06:06;;;;;;;4.68;2.88;;;;;;;14.81;nan;101725.25;4895542;29;20028;-48
2021/10/04 07:08:31;;;;;;;4.00;2.65;;;;;;;15.00;nan;101727.63;4895493;29;20038;-48
2021/10/04 07:10:57;;;;;;;4.93;2.90;;;;;;;14.90;nan;101728.34;4894896;29;20403;-48
2021/10/04 07:13:22;;;;;;;4.07;2.88;;;;;;;14.85;nan;101730.16;4894643;29;20036;-47
2021/10/04 07:15:48;;;;;;;4.30;2.72;;;;;;;14.96;nan;101726.50;4895624;29;20032;-50
2021/10/04 07:18:14;;;;;;;4.40;2.42;;;;;;;15.11;nan;101729.38;4895620;29;20072;-48
2021/10/04 07:20:40;;;;;;;4.00;2.40;;;;;;;15.25;nan;101738.69;4894612;29;20042;-49
2021/10/04 07:23:06;;;;;;;4.53;2.47;;;;;;;15.24;nan;101750.53;4895167;29;20402;-48
2021/10/04 07:25:33;;;;;;;3.17;2.22;;;;;;;15.35;nan;101749.59;4895744;29;20028;-48
2021/10/04 07:27:59;;;;;;;3.13;2.33;;;;;;;15.45;nan;101748.88;4896074;29;20410;-50
2021/10/04 07:30:25;;;;;;;5.22;2.45;;;;;;;15.45;nan;101764.28;4895366;29;20064;-48
2021/10/04 07:32:50;;;;;;;2.85;2.00;;;;;;;15.36;nan;101775.53;4894450;29;20036;-48
2021/10/04 07:35:16;;;;;;;4.30;1.85;;;;;;;15.38;nan;101762.56;4892737;29;20063;-48
2021/10/04 07:37:42;;;;;;;3.42;2.40;;;;;;;15.60;nan;101759.81;4896934;29;20131;-48
2021/10/04 07:40:09;;;;;;;4.18;2.30;;;;;;;15.81;nan;101766.25;4896486;29;20455;-48
2021/10/04 07:42:35;;;;;;;2.45;1.90;;;;;;;15.91;nan;101760.91;4897307;29;20395;-48
2021/10/04 07:45:00;;;;;;;2.63;1.90;;;;;;;15.91;nan;101766.31;4910822;29;20031;-48
2021/10/04 07:47:26;;;;;;;2.42;1.90;;;;;;;15.88;nan;101761.44;4895761;29;20039;-48
2021/10/04 07:49:51;;;;;;;3.03;1.65;;;;;;;16.04;nan;101767.75;4895154;29;20546;-48
2021/10/04 07:52:17;;;;;;;3.05;2.25;;;;;;;16.16;nan;101752.16;4895713;29;20032;-48
2021/10/04 07:54:42;;;;;;;2.33;1.98;;;;;;;16.35;nan;101759.84;4897069;29;20525;-48
2021/10/04 07:57:12;;;;;;;2.97;1.98;;;;;;;16.26;nan;101754.09;4895507;29;20033;-48
2021/10/04 07:59:39;;;;;;;2.55;1.80;;;;;;;16.24;nan;101761.66;4896146;29;20032;-48
2021/10/04 08:02:06;;;;;;;3.28;1.70;;;;;;;16.13;nan;101771.59;4895104;29;20403;-48
2021/10/04 08:04:32;;;;;;;1.92;1.40;;;;;;;16.07;nan;101777.25;4896681;29;20039;-48
2021/10/04 08:06:57;;;;;;;1.48;1.20;;;;;;;15.87;nan;101778.72;4895824;29;20028;-48
2021/10/04 08:09:23;;;;;;;2.15;1.33;;;;;;;15.99;nan;101784.75;4893990;29;20406;-48
2021/10/04 08:11:48;;;;;;;1.38;1.27;;;;;;;15.88;nan;101788.44;4895312;29;20092;-48
2021/10/04 08:14:14;;;;;;;1.38;1.02;;;;;;;15.91;nan;101798.75;4894521;29;20132;-49
2021/10/04 08:16:41;;;;;;;1.70;1.27;;;;;;;15.95;nan;101801.72;4895178;29;20559;-48
2021/10/04 08:19:06;;;;;;;1.08;0.95;;;;;;;15.89;nan;101800.88;4894760;29;20035;-48
2021/10/04 08:21:32;;;;;;;1.80;1.15;;;;;;;16.04;nan;101799.38;4895312;29;20031;-48
2021/10/04 08:23:59;;;;;;;2.20;1.40;;;;;;;16.01;nan;101798.84;4895767;29;20078;-48
2021/10/04 08:26:26;;;;;;;3.53;1.42;;;;;;;16.12;nan;101804.31;4895354;29;20034;-48
2021/10/04 08:28:52;;;;;;;1.60;0.98;;;;;;;15.97;nan;101807.69;4894848;29;20522;-48
2021/10/04 08:31:18;;;;;;;1.77;1.15;;;;;;;15.94;nan;101811.72;4895111;29;20317;-48
2021/10/04 08:33:44;;;;;;;2.17;0.68;;;;;;;15.79;nan;101811.59;4894469;29;20035;-48
2021/10/04 08:36:09;;;;;;;1.95;0.82;;;;;;;15.73;nan;101818.03;4895861;29;20440;-49
2021/10/04 08:38:35;;;;;;;2.25;0.70;;;;;;;15.59;nan;101823.03;4894998;29;20035;-48
2021/10/04 08:41:02;;;;;;;2.13;1.00;;;;;;;15.78;nan;101826.19;4894110;29;20392;-48
2021/10/04 08:43:27;;;;;;;0.90;0.75;;;;;;;15.65;nan;101821.22;4893760;29;20126;-48
2021/10/04 08:45:57;;;;;;;2.50;0.80;;;;;;;15.64;nan;101830.41;4895152;29;20032;-48
2021/10/04 08:48:24;;;;;;;0.60;0.60;;;;;;;15.50;nan;101826.44;4894887;29;20039;-50
2021/10/04 08:50:49;;;;;;;1.23;0.50;;;;;;;15.69;nan;101811.53;4893753;29;20039;-48
2021/10/04 08:53:16;;;;;;;1.08;0.80;;;;;;;15.87;nan;101811.16;4895226;29;20123;-49
2021/10/04 08:55:42;;;;;;;0.95;0.60;;;;;;;15.73;nan;101819.94;4894154;29;20047;-48
2021/10/04 08:58:10;;;;;;;2.05;0.70;;;;;;;15.85;nan;101828.69;4896715;29;20021;-48
2021/10/04 09:00:36;;;;;;;0.80;0.70;;;;;;;15.75;nan;101826.69;4893633;29;20387;-48
2021/10/04 09:03:03;;;;;;;0.40;0.40;;;;;;;15.79;nan;101832.41;4891893;29;20533;-48
2021/10/04 09:05:29;;;;;;;1.60;0.98;;;;;;;15.91;nan;101835.75;4894849;29;20162;-49
2021/10/04 09:07:55;;;;;;;2.58;0.75;;;;;;;15.80;nan;101845.69;4893443;29;20317;-50
2021/10/04 09:10:24;;;;;;;1.55;0.70;;;;;;;15.66;nan;101847.16;4894769;29;20043;-48
2021/10/04 09:12:53;;;;;;;1.98;0.75;;;;;;;15.66;nan;101849.88;4909930;29;20115;-49
2021/10/04 09:15:27;;;;;;;1.58;0.60;;;;;;;15.35;nan;101857.59;4893443;29;20066;-48
2021/10/04 09:17:53;;;;;;;0.90;0.47;;;;;;;15.35;nan;101856.78;4893646;29;20116;-48
2021/10/04 09:20:19;;;;;;;1.80;0.50;;;;;;;15.43;nan;101857.13;4894170;29;20383;-48
2021/10/04 09:22:46;;;;;;;0.98;0.55;;;;;;;15.34;nan;101857.84;4893421;29;20051;-48
2021/10/04 09:25:11;;;;;;;0.73;0.50;;;;;;;15.21;nan;101863.63;4894493;29;20080;-48
2021/10/04 09:27:38;;;;;;;0.52;0.52;;;;;;;15.35;nan;101854.91;4895670;29;20028;-48
2021/10/04 09:30:10;;;;;;;0.70;0.57;;;;;;;15.30;nan;101852.16;4892426;29;20409;-49
2021/10/04 09:32:42;;;;;;;2.30;0.60;;;;;;;15.44;nan;101852.59;4894076;29;20033;-48
2021/10/04 09:35:12;;;;;;;0.95;0.60;;;;;;;15.47;nan;101862.88;4895581;29;20054;-49
2021/10/04 09:37:37;;;;;;;2.22;0.63;;;;;;;15.58;nan;101856.50;4894267;29;20149;-48
2021/10/04 09:40:04;;;;;;;1.27;0.80;;;;;;;15.54;nan;101881.56;4892301;29;20037;-48
2021/10/04 09:42:38;;;;;;;2.47;0.70;;;;;;;15.50;nan;101875.03;4894178;29;20456;-48
2021/10/04 09:45:05;;;;;;;3.00;0.90;;;;;;;15.58;nan;101879.97;4893895;29;20556;-48
2021/10/04 09:47:40;;;;;;;7.15;1.13;;;;;;;15.55;nan;101892.13;4892646;29;20036;-48
2021/10/04 09:50:08;;;;;;;2.45;1.10;;;;;;;15.65;nan;101881.47;4894619;29;20032;-48
2021/10/04 09:52:41;;;;;;;1.40;0.80;;;;;;;15.71;nan;101882.31;4893870;29;20389;-48
2021/10/04 09:55:17;;;;;;;1.95;0.90;;;;;;;15.48;nan;101882.59;4893797;29;20160;-48
2021/10/04 09:57:59;;;;;;;3.20;1.00;;;;;;;15.58;nan;101879.97;4894058;29;20040;-48
2021/10/04 10:00:27;;;;;;;1.40;0.70;;;;;;;15.64;nan;101879.84;4893774;29;20038;-49
2021/10/04 10:02:56;;;;;;;0.57;0.50;;;;;;;15.78;nan;101880.22;4892961;29;20032;-48
2021/10/04 10:05:27;;;;;;;2.00;0.50;;;;;;;15.87;nan;101884.13;4893071;29;20110;-48
2021/10/04 10:07:53;;;;;;;1.00;0.60;;;;;;;16.01;nan;101885.34;4893537;29;20539;-49
2021/10/04 10:10:19;;;;;;;1.63;0.45;;;;;;;16.11;nan;101876.47;4891786;29;20024;-48
2021/10/04 10:12:46;;;;;;;0.52;0.50;;;;;;;16.26;nan;101879.31;4893696;29;20517;-49
2021/10/04 10:15:23;;;;;;;3.33;0.55;;;;;;;16.17;nan;101880.06;4897304;29;20507;-49
2021/10/04 10:17:54;;;;;;;1.55;0.55;;;;;;;16.26;nan;101870.38;4898356;29;20036;-48
2021/10/04 10:20:22;;;;;;;0.85;0.47;;;;;;;16.42;nan;101871.31;4896517;29;20028;-48
2021/10/04 10:22:51;;;;;;;2.47;0.55;;;;;;;16.51;nan;101875.97;4898732;29;20033;-48
2021/10/04 10:25:30;;;;;;;1.17;0.50;;;;;;;16.20;nan;101876.84;4897120;29;20507;-49
2021/10/04 10:27:56;;;;;;;0.75;0.45;;;;;;;16.12;nan;101877.28;4897675;29;20031;-48
2021/10/04 10:30:25;;;;;;;0.45;0.40;;;;;;;15.65;nan;101892.28;4895991;29;20028;-49
2021/10/04 10:32:52;;;;;;;1.17;0.50;;;;;;;15.78;nan;101890.22;4896936;29;20032;-49
2021/10/04 10:35:48;;;;;;;1.58;0.50;;;;;;;15.70;nan;101900.41;4897101;29;20032;-48
2021/10/04 10:38:15;;;;;;;4.47;0.80;;;;;;;15.84;nan;101906.25;4896786;29;20040;-48
2021/10/04 10:40:41;;;;;;;3.88;0.73;;;;;;;15.91;nan;101912.25;4895590;29;20029;-49
2021/10/04 10:43:09;;;;;;;1.40;0.65;;;;;;;16.13;nan;101920.28;4895514;29;20035;-49
2021/10/04 10:45:41;;;;;;;2.05;0.60;;;;;;;16.17;nan;101928.72;4896835;29;20031;-48
2021/10/04 10:48:07;;;;;;;1.55;0.50;;;;;;;16.30;nan;101926.41;4895807;29;20566;-48
2021/10/04 10:50:37;;;;;;;1.80;0.52;;;;;;;16.87;nan;101914.94;4896046;29;20064;-48
2021/10/04 10:53:12;;;;;;;1.33;0.65;;;;;;;16.88;nan;101913.06;4895945;29;20395;-48
2021/10/04 10:55:41;;;;;;;2.42;0.70;;;;;;;17.24;nan;101918.66;4899182;29;20379;-48
2021/10/04 10:58:15;;;;;;;2.35;0.80;;;;;;;17.64;nan;101921.53;4896186;29;20095;-51
2021/10/04 11:01:05;;;;;;;1.45;0.75;;;;;;;17.85;nan;101918.88;4894927;29;20028;-49
2021/10/04 11:03:31;;;;;;;2.90;0.63;;;;;;;17.83;nan;101912.94;4896458;29;20110;-48
2021/10/04 11:06:06;;;;;;;1.50;0.70;;;;;;;18.01;nan;101902.38;4895558;29;20562;-50
2021/10/04 11:08:34;;;;;;;3.55;1.05;;;;;;;18.14;nan;101906.47;4896082;29;20511;-51
2021/10/04 11:11:00;;;;;;;1.58;0.77;;;;;;;18.18;nan;101904.03;4894593;29;20047;-51
2021/10/04 11:13:33;;;;;;;2.28;0.90;;;;;;;18.17;nan;101900.50;4895317;29;20032;-48
2021/10/04 11:16:05;;;;;;;1.15;0.60;;;;;;;18.53;nan;101908.63;4895314;29;20032;-49
2021/10/04 11:18:46;;;;;;;2.58;0.85;;;;;;;18.58;nan;101905.91;4895658;29;20495;-48
2021/10/04 11:21:15;;;;;;;1.88;0.90;;;;;;;18.81;nan;101909.94;4894355;29;20040;-49
2021/10/04 11:24:05;;;;;;;2.58;0.88;;;;;;;18.82;nan;101901.53;4898550;29;20035;-49
2021/10/04 11:26:34;;;;;;;2.45;1.23;;;;;;;18.95;nan;101914.53;4894832;29;20040;-49
2021/10/04 11:29:02;;;;;;;1.38;0.85;;;;;;;18.41;nan;101906.19;4895062;29;20039;-49
2021/10/04 11:31:36;;;;;;;1.27;0.90;;;;;;;18.09;nan;101906.44;4895395;29;20066;-48